createdAt,value
2023-03-11T00:00:40.018Z,5.88
2023-03-11T00:03:08.864Z,4.30
2023-03-11T00:05:38.494Z,5.07
2023-03-11T00:08:07.206Z,6.55
2023-03-11T00:10:42.331Z,6.75
2023-03-11T00:13:11.777Z,4.82
2023-03-11T00:15:39.037Z,4.65
2023-03-11T00:18:06.019Z,4.20
2023-03-11T00:20:35.482Z,5.82
2023-03-11T00:23:02.846Z,7.28
2023-03-11T00:25:30.730Z,6.72
2023-03-11T00:27:58.140Z,8.40
2023-03-11T00:30:25.452Z,4.07
2023-03-11T00:32:54.752Z,6.05
2023-03-11T00:35:24.512Z,5.47
2023-03-11T00:37:55.262Z,11.57
2023-03-11T00:40:23.973Z,4.15
2023-03-11T00:42:50.635Z,5.53
2023-03-11T00:45:17.254Z,10.48
2023-03-11T00:47:44.047Z,3.10
2023-03-11T00:50:15.566Z,10.85
2023-03-11T00:52:41.972Z,4.68
2023-03-11T00:55:08.661Z,5.45
2023-03-11T00:57:35.023Z,8.07
2023-03-11T01:00:02.015Z,7.20
2023-03-11T01:02:28.762Z,5.97
2023-03-11T01:04:55.607Z,10.15
2023-03-11T01:07:22.589Z,9.15
2023-03-11T01:09:48.909Z,6.53
2023-03-11T01:12:15.211Z,5.53
2023-03-11T01:14:41.550Z,9.13
2023-03-11T01:17:08.718Z,8.00
2023-03-11T01:19:35.324Z,9.93
2023-03-11T01:22:01.680Z,7.97
2023-03-11T01:24:28.009Z,7.93
2023-03-11T01:26:54.337Z,12.10
2023-03-11T01:29:20.647Z,9.20
2023-03-11T01:31:47.010Z,8.82
2023-03-11T01:34:13.366Z,5.72
2023-03-11T01:36:41.086Z,4.43
2023-03-11T01:39:07.418Z,11.18
2023-03-11T01:41:33.798Z,9.68
2023-03-11T01:44:02.286Z,9.25
2023-03-11T01:46:59.757Z,7.10
2023-03-11T01:49:30.490Z,8.40
2023-03-11T01:52:03.616Z,8.02
2023-03-11T01:54:33.457Z,7.65
2023-03-11T01:57:05.024Z,11.45
2023-03-11T01:59:36.338Z,8.90
2023-03-11T02:02:12.571Z,8.27
2023-03-11T02:04:40.664Z,6.95
2023-03-11T02:07:10.090Z,9.38
2023-03-11T02:09:36.526Z,6.75
2023-03-11T02:12:05.777Z,11.05
2023-03-11T02:14:32.939Z,7.95
2023-03-11T02:17:00.510Z,8.27
2023-03-11T02:19:41.149Z,3.20
2023-03-11T02:22:09.837Z,7.60
2023-03-11T02:25:04.318Z,7.70
2023-03-11T02:27:35.395Z,5.97
2023-03-11T02:30:05.303Z,8.77
2023-03-11T02:32:35.222Z,7.53
2023-03-11T02:35:01.809Z,7.75
2023-03-11T02:37:28.168Z,6.45
2023-03-11T02:40:37.871Z,5.30
2023-03-11T02:43:14.170Z,7.10
2023-03-11T02:45:43.327Z,5.57
2023-03-11T02:48:11.648Z,6.00
2023-03-11T02:50:39.876Z,6.78
2023-03-11T02:53:06.950Z,7.43
2023-03-11T02:55:33.624Z,10.30
2023-03-11T02:58:00.046Z,8.32
2023-03-11T03:00:26.709Z,7.75
2023-03-11T03:02:59.370Z,10.10
2023-03-11T03:05:27.278Z,7.65
2023-03-11T03:07:53.721Z,7.95
2023-03-11T03:10:21.603Z,9.70
2023-03-11T03:12:48.361Z,11.02
2023-03-11T03:15:15.930Z,7.53
2023-03-11T03:17:43.364Z,8.63
2023-03-11T03:20:13.932Z,15.70
2023-03-11T03:22:44.495Z,7.72
2023-03-11T03:25:14.021Z,11.57
2023-03-11T03:27:40.473Z,11.43
2023-03-11T03:30:09.121Z,5.75
2023-03-11T03:32:36.649Z,6.70
2023-03-11T03:35:04.714Z,6.32
2023-03-11T03:37:52.200Z,11.82
2023-03-11T03:40:20.698Z,7.65
2023-03-11T03:42:47.320Z,6.32
2023-03-11T03:45:13.850Z,9.68
2023-03-11T03:47:40.594Z,8.73
2023-03-11T03:50:09.545Z,13.43
2023-03-11T03:52:37.888Z,7.72
2023-03-11T03:55:05.868Z,6.28
2023-03-11T03:57:32.501Z,9.20
2023-03-11T03:59:58.925Z,12.75
2023-03-11T04:02:26.951Z,8.45
2023-03-11T04:04:54.641Z,7.80
2023-03-11T04:07:21.315Z,10.48
2023-03-11T04:09:47.683Z,9.82
2023-03-11T04:12:17.334Z,12.95
2023-03-11T04:14:45.959Z,9.15
2023-03-11T04:17:14.015Z,13.93
2023-03-11T04:19:40.687Z,12.13
2023-03-11T04:22:07.565Z,9.20
2023-03-11T04:24:33.908Z,13.25
2023-03-11T04:27:00.872Z,9.82
2023-03-11T04:29:27.585Z,9.68
2023-03-11T04:31:54.099Z,9.45
2023-03-11T04:34:21.301Z,11.98
2023-03-11T04:36:47.677Z,6.80
2023-03-11T04:39:16.002Z,9.13
2023-03-11T04:41:44.075Z,7.90
2023-03-11T04:44:15.038Z,8.73
2023-03-11T04:46:41.649Z,9.90
2023-03-11T04:49:10.202Z,10.25
2023-03-11T04:51:37.178Z,19.42
2023-03-11T04:54:04.627Z,14.70
2023-03-11T04:56:31.038Z,9.27
2023-03-11T04:58:57.953Z,12.48
2023-03-11T05:01:25.552Z,13.23
2023-03-11T05:03:52.107Z,12.52
2023-03-11T05:06:18.484Z,13.23
2023-03-11T05:08:45.009Z,12.15
2023-03-11T05:11:11.637Z,13.98
2023-03-11T05:13:37.949Z,10.82
2023-03-11T05:16:04.733Z,9.00
2023-03-11T05:18:32.341Z,7.55
2023-03-11T05:20:58.929Z,8.75
2023-03-11T05:23:28.336Z,12.93
2023-03-11T05:25:54.787Z,17.77
2023-03-11T05:28:22.184Z,10.68
2023-03-11T05:30:51.752Z,10.75
2023-03-11T05:33:18.739Z,12.95
2023-03-11T05:35:46.144Z,8.05
2023-03-11T05:38:13.058Z,6.00
2023-03-11T05:40:39.805Z,14.07
2023-03-11T05:43:06.142Z,15.13
2023-03-11T05:45:37.047Z,12.65
2023-03-11T05:48:03.674Z,12.10
2023-03-11T05:50:30.416Z,14.95
2023-03-11T05:52:57.133Z,12.13
2023-03-11T05:55:23.649Z,18.67
2023-03-11T05:57:52.240Z,12.52
2023-03-11T06:00:20.387Z,15.70
2023-03-11T06:02:51.289Z,11.48
2023-03-11T06:05:19.007Z,13.43
2023-03-11T06:07:47.724Z,10.77
2023-03-11T06:10:14.099Z,11.20
2023-03-11T06:12:40.994Z,9.90
2023-03-11T06:15:18.828Z,6.82
2023-03-11T06:17:45.216Z,12.82
2023-03-11T06:20:12.329Z,6.18
2023-03-11T06:22:40.463Z,9.00
2023-03-11T06:25:08.099Z,12.13
2023-03-11T06:27:35.130Z,13.27
2023-03-11T06:30:01.937Z,15.73
2023-03-11T06:32:31.550Z,8.43
2023-03-11T06:34:58.022Z,14.40
2023-03-11T06:37:25.473Z,13.20
2023-03-11T06:39:53.386Z,7.68
2023-03-11T06:42:23.878Z,15.80
2023-03-11T06:44:51.930Z,8.77
2023-03-11T06:47:18.497Z,11.93
2023-03-11T06:49:45.126Z,15.40
2023-03-11T06:52:11.502Z,7.70
2023-03-11T06:54:38.507Z,8.88
2023-03-11T06:57:07.756Z,12.10
2023-03-11T06:59:34.504Z,7.72
2023-03-11T07:02:01.389Z,13.52
2023-03-11T07:04:27.884Z,12.00
2023-03-11T07:06:54.284Z,7.30
2023-03-11T07:09:22.984Z,13.48
2023-03-11T07:11:49.403Z,15.63
2023-03-11T07:14:23.191Z,9.43
2023-03-11T07:16:53.248Z,14.23
2023-03-11T07:19:31.152Z,16.35
2023-03-11T07:21:57.513Z,10.93
2023-03-11T07:24:23.830Z,11.48
2023-03-11T07:26:50.161Z,13.82
2023-03-11T07:29:16.475Z,14.80
2023-03-11T07:31:42.944Z,11.27
2023-03-11T07:34:12.440Z,10.43
2023-03-11T07:36:42.440Z,10.73
2023-03-11T07:39:14.887Z,11.10
2023-03-11T07:41:41.620Z,12.98
2023-03-11T07:44:09.844Z,11.65
2023-03-11T07:46:36.252Z,9.02
2023-03-11T07:49:03.653Z,14.27
2023-03-11T07:51:32.504Z,12.15
2023-03-11T07:54:00.504Z,16.70
2023-03-11T07:56:30.068Z,18.85
2023-03-11T07:58:58.456Z,8.48
2023-03-11T08:01:27.057Z,10.07
2023-03-11T08:03:58.591Z,9.13
2023-03-11T08:06:29.030Z,12.40
2023-03-11T08:08:55.370Z,14.07
2023-03-11T08:11:22.306Z,14.95
2023-03-11T08:13:49.427Z,19.70
2023-03-11T08:16:19.781Z,7.32
2023-03-11T08:18:47.481Z,12.45
2023-03-11T08:21:17.307Z,11.15
2023-03-11T08:23:45.919Z,11.70
2023-03-11T08:26:15.273Z,13.75
2023-03-11T08:28:41.702Z,16.65
2023-03-11T08:31:19.880Z,10.25
2023-03-11T08:33:49.825Z,12.65
2023-03-11T08:36:17.117Z,22.75
2023-03-11T08:38:43.601Z,8.70
2023-03-11T08:41:10.100Z,14.60
2023-03-11T08:43:36.455Z,19.15
2023-03-11T08:46:06.570Z,17.63
2023-03-11T08:48:33.698Z,11.85
2023-03-11T08:51:00.127Z,20.30
2023-03-11T08:53:26.460Z,14.82
2023-03-11T08:55:53.108Z,13.32
2023-03-11T08:58:20.231Z,13.20
2023-03-11T09:00:46.764Z,16.25
2023-03-11T09:03:13.593Z,9.77
2023-03-11T09:05:40.598Z,15.45
2023-03-11T09:08:06.992Z,7.40
2023-03-11T09:10:33.453Z,10.60
2023-03-11T09:12:59.797Z,9.75
2023-03-11T09:15:26.205Z,9.27
2023-03-11T09:17:52.998Z,12.77
2023-03-11T09:20:19.573Z,11.02
2023-03-11T09:22:45.917Z,10.23
2023-03-11T09:25:13.548Z,8.60
2023-03-11T09:27:41.236Z,6.75
2023-03-11T09:30:08.834Z,5.95
2023-03-11T09:32:35.542Z,7.85
2023-03-11T09:35:02.039Z,16.08
2023-03-11T09:37:30.097Z,5.47
2023-03-11T09:39:56.428Z,8.45
2023-03-11T09:42:50.389Z,6.78
2023-03-11T09:45:21.546Z,9.55
2023-03-11T09:48:03.492Z,8.95
2023-03-11T09:50:32.586Z,8.63
2023-03-11T09:53:13.652Z,8.40
2023-03-11T09:55:55.618Z,7.68
2023-03-11T09:58:37.492Z,3.88
2023-03-11T10:01:15.177Z,7.63
2023-03-11T10:03:43.024Z,5.95
2023-03-11T10:06:25.982Z,5.93
2023-03-11T10:09:00.603Z,9.40
2023-03-11T10:11:47.082Z,5.78
2023-03-11T10:14:26.351Z,9.52
2023-03-11T10:17:08.550Z,7.25
2023-03-11T10:20:16.718Z,4.03
2023-03-11T10:23:01.264Z,4.03
2023-03-11T10:25:42.464Z,4.22
2023-03-11T10:28:13.892Z,9.05
2023-03-11T10:31:18.874Z,8.70
2023-03-11T10:33:58.409Z,8.25
2023-03-11T10:36:34.691Z,3.25
2023-03-11T10:39:02.199Z,9.00
2023-03-11T10:41:46.423Z,3.45
2023-03-11T10:44:38.868Z,5.07
2023-03-11T10:47:07.178Z,5.53
2023-03-11T10:49:33.801Z,8.63
2023-03-11T10:52:03.159Z,3.25
2023-03-11T10:54:39.504Z,10.60
2023-03-11T10:57:18.855Z,8.95
2023-03-11T10:59:48.686Z,22.27
2023-03-11T11:02:26.689Z,31.05
2023-03-11T11:05:06.728Z,40.63
2023-03-11T11:07:41.594Z,12.60
2023-03-11T11:10:22.208Z,17.80
2023-03-11T11:13:16.640Z,7.45
2023-03-11T11:15:59.895Z,16.15
2023-03-11T11:18:33.730Z,16.85
2023-03-11T11:21:15.853Z,12.30
2023-03-11T11:23:46.816Z,7.10
2023-03-11T11:26:25.306Z,7.28
2023-03-11T11:29:09.983Z,5.03
2023-03-11T11:31:38.390Z,8.63
2023-03-11T11:34:24.674Z,5.03
2023-03-11T11:36:51.194Z,2.95
2023-03-11T11:39:20.194Z,3.50
2023-03-11T11:41:49.557Z,4.88
2023-03-11T11:44:20.790Z,9.05
2023-03-11T11:49:28.902Z,9.77
2023-03-11T11:52:02.851Z,4.07
2023-03-11T11:54:29.181Z,12.27
2023-03-11T11:56:56.821Z,8.80
2023-03-11T11:59:23.366Z,6.93
2023-03-11T12:02:03.755Z,4.65
2023-03-11T12:04:36.668Z,20.50
2023-03-11T12:07:24.874Z,7.13
2023-03-11T12:10:19.761Z,8.32
2023-03-11T12:13:25.913Z,6.50
2023-03-11T12:16:31.335Z,12.52
2023-03-11T12:19:12.716Z,5.53
2023-03-11T12:24:55.788Z,8.30
2023-03-11T12:27:36.179Z,5.63
2023-03-11T12:30:11.440Z,3.70
2023-03-11T12:32:44.011Z,7.18
2023-03-11T12:35:27.719Z,2.85
2023-03-11T12:38:12.277Z,3.30
2023-03-11T12:40:47.600Z,4.50
2023-03-11T12:43:35.238Z,8.15
2023-03-11T12:46:04.349Z,3.72
2023-03-11T12:48:33.868Z,6.22
2023-03-11T12:51:00.910Z,8.63
2023-03-11T12:53:48.474Z,10.38
2023-03-11T12:56:39.588Z,2.95
2023-03-11T12:59:50.470Z,8.90
2023-03-11T13:02:35.224Z,9.85
2023-03-11T13:05:31.732Z,11.98
2023-03-11T13:08:13.610Z,6.63
2023-03-11T13:10:42.879Z,5.93
2023-03-11T13:13:35.137Z,3.08
2023-03-11T13:16:13.834Z,8.85
2023-03-11T13:18:42.223Z,4.60
2023-03-11T13:21:26.900Z,3.40
2023-03-11T13:24:18.867Z,6.78
2023-03-11T13:27:04.902Z,17.75
2023-03-11T13:29:57.187Z,9.20
2023-03-11T13:32:45.292Z,7.63
2023-03-11T13:35:24.834Z,9.68
2023-03-11T13:38:15.961Z,6.15
2023-03-11T13:40:44.425Z,3.95
2023-03-11T13:43:15.341Z,3.58
2023-03-11T13:45:48.497Z,10.35
2023-03-11T13:48:20.715Z,5.00
2023-03-11T13:50:58.746Z,3.95
2023-03-11T13:53:33.216Z,5.75
2023-03-11T13:55:59.724Z,6.45
2023-03-11T13:58:27.919Z,4.85
2023-03-11T14:00:57.018Z,13.60
2023-03-11T14:03:25.670Z,7.78
2023-03-11T14:06:06.765Z,6.05
2023-03-11T14:08:35.421Z,7.30
2023-03-11T14:11:14.573Z,3.85
2023-03-11T14:13:49.973Z,5.07
2023-03-11T14:16:21.239Z,6.97
2023-03-11T14:19:00.791Z,8.68
2023-03-11T14:21:27.797Z,6.55
2023-03-11T14:23:55.977Z,6.53
2023-03-11T14:26:27.631Z,5.13
2023-03-11T14:28:59.883Z,9.93
2023-03-11T14:31:40.226Z,2.92
2023-03-11T14:34:27.364Z,21.13
2023-03-11T14:36:59.418Z,7.43
2023-03-11T14:39:37.780Z,7.68
2023-03-11T14:42:26.498Z,5.57
2023-03-11T14:45:02.086Z,9.70
2023-03-11T14:47:32.979Z,5.00
2023-03-11T14:50:00.424Z,4.35
2023-03-11T14:52:58.049Z,8.35
2023-03-11T14:55:36.240Z,9.23
2023-03-11T14:58:25.046Z,5.70
2023-03-11T15:01:31.356Z,8.55
2023-03-11T15:04:06.068Z,3.42
2023-03-11T15:06:34.086Z,5.28
2023-03-11T15:09:17.872Z,8.95
2023-03-11T15:11:59.150Z,7.07
2023-03-11T15:16:55.473Z,12.60
2023-03-11T15:19:23.698Z,5.43
2023-03-11T15:21:54.180Z,6.82
2023-03-11T15:24:27.847Z,7.38
2023-03-11T15:27:01.225Z,11.18
2023-03-11T15:29:29.373Z,8.10
2023-03-11T15:31:57.086Z,2.55
2023-03-11T15:34:30.505Z,8.85
2023-03-11T15:37:03.658Z,6.03
2023-03-11T15:39:29.957Z,2.83
2023-03-11T15:42:06.530Z,3.78
2023-03-11T15:44:53.457Z,6.88
2023-03-11T15:47:22.750Z,4.63
2023-03-11T15:49:49.928Z,7.35
2023-03-11T15:52:19.087Z,7.35
2023-03-11T15:54:54.721Z,4.63
2023-03-11T15:57:25.385Z,4.13
2023-03-11T15:59:54.268Z,2.67
2023-03-11T16:02:23.670Z,7.20
2023-03-11T16:04:51.081Z,2.45
2023-03-11T16:07:21.780Z,2.60
2023-03-11T16:09:55.747Z,5.32
2023-03-11T16:12:23.427Z,5.93
2023-03-11T16:14:50.520Z,3.92
2023-03-11T16:17:18.687Z,4.70
2023-03-11T16:19:47.991Z,6.13
2023-03-11T16:22:24.217Z,6.38
2023-03-11T16:24:53.116Z,17.00
2023-03-11T16:27:19.628Z,10.55
2023-03-11T16:29:46.486Z,9.95
2023-03-11T16:32:13.483Z,9.65
2023-03-11T16:34:40.599Z,5.10
2023-03-11T16:37:07.871Z,7.95
2023-03-11T16:39:34.855Z,8.85
2023-03-11T16:42:01.640Z,45.53
2023-03-11T16:44:28.328Z,56.95
2023-03-11T16:46:55.017Z,12.90
2023-03-11T16:49:21.536Z,10.77
2023-03-11T16:51:47.869Z,8.45
2023-03-11T16:54:14.184Z,8.93
2023-03-11T16:56:41.869Z,8.77
2023-03-11T16:59:08.691Z,10.35
2023-03-11T17:01:38.417Z,9.85
2023-03-11T17:04:08.097Z,9.00
2023-03-11T17:06:34.818Z,7.40
2023-03-11T17:09:01.212Z,9.07
2023-03-11T17:11:30.604Z,12.80
2023-03-11T17:14:10.088Z,9.63
2023-03-11T17:16:41.786Z,19.88
2023-03-11T17:19:08.194Z,84.15
2023-03-11T17:21:34.494Z,100.47
2023-03-11T17:24:00.822Z,108.03
2023-03-11T17:26:30.601Z,50.30
2023-03-11T17:28:57.261Z,43.67
2023-03-11T17:31:23.741Z,50.38
2023-03-11T17:33:50.619Z,35.35
2023-03-11T17:36:18.144Z,22.48
2023-03-11T17:38:46.679Z,24.48
2023-03-11T17:41:15.736Z,21.15
2023-03-11T17:43:42.788Z,32.92
2023-03-11T17:46:12.207Z,26.00
2023-03-11T17:48:38.543Z,16.35
2023-03-11T17:51:10.201Z,14.15
2023-03-11T17:53:38.112Z,18.77
2023-03-11T17:56:05.643Z,20.60
2023-03-11T17:58:32.936Z,18.77
2023-03-11T18:01:02.965Z,24.52
2023-03-11T18:03:29.295Z,16.67
2023-03-11T18:05:57.350Z,21.40
2023-03-11T18:08:23.831Z,22.10
2023-03-11T18:10:51.590Z,13.52
2023-03-11T18:13:18.687Z,12.20
2023-03-11T18:15:45.245Z,15.90
2023-03-11T18:18:11.870Z,9.15
2023-03-11T18:20:38.852Z,8.43
2023-03-11T18:23:05.637Z,10.05
2023-03-11T18:25:32.232Z,5.88
2023-03-11T18:27:58.582Z,9.57
2023-03-11T18:30:25.341Z,8.70
2023-03-11T18:32:51.706Z,11.95
2023-03-11T18:35:18.628Z,14.32
2023-03-11T18:37:45.058Z,8.52
2023-03-11T18:40:12.099Z,4.30
2023-03-11T18:42:38.417Z,5.00
2023-03-11T18:45:05.353Z,9.45
2023-03-11T18:47:35.460Z,8.73
2023-03-11T18:50:01.872Z,13.18
2023-03-11T18:52:28.237Z,16.67
2023-03-11T18:54:54.582Z,15.35
2023-03-11T18:57:20.896Z,13.05
2023-03-11T18:59:48.897Z,14.15
2023-03-11T19:02:15.208Z,9.63
2023-03-11T19:04:41.589Z,11.02
2023-03-11T19:07:08.169Z,9.43
2023-03-11T19:09:34.567Z,7.72
2023-03-11T19:12:01.319Z,10.30
2023-03-11T19:14:28.038Z,7.78
2023-03-11T19:16:54.389Z,5.20
2023-03-11T19:19:20.798Z,8.80
2023-03-11T19:21:47.641Z,11.20
2023-03-11T19:24:14.504Z,11.07
2023-03-11T19:26:45.364Z,11.35
2023-03-11T19:29:13.514Z,11.20
2023-03-11T19:31:39.951Z,10.20
2023-03-11T19:34:06.368Z,11.05
2023-03-11T19:36:32.689Z,17.98
2023-03-11T19:38:58.993Z,7.32
2023-03-11T19:41:25.280Z,9.20
2023-03-11T19:43:52.208Z,8.40
2023-03-11T19:46:20.651Z,10.75
2023-03-11T19:48:46.993Z,6.90
2023-03-11T19:51:13.448Z,9.23
2023-03-11T19:53:42.735Z,8.80
2023-03-11T19:56:09.764Z,11.20
2023-03-11T19:58:36.450Z,13.82
2023-03-11T20:01:03.227Z,15.57
2023-03-11T20:03:29.624Z,8.13
2023-03-11T20:05:57.826Z,13.20
2023-03-11T20:08:25.487Z,9.20
2023-03-11T20:10:53.030Z,8.32
2023-03-11T20:13:20.577Z,9.15
2023-03-11T20:15:47.442Z,4.65
2023-03-11T20:18:14.207Z,7.90
2023-03-11T20:20:42.988Z,8.90
2023-03-11T20:23:09.480Z,12.05
2023-03-11T20:25:38.267Z,23.60
2023-03-11T20:28:04.603Z,40.42
2023-03-11T20:30:31.084Z,176.32
2023-03-11T20:32:57.449Z,337.52
2023-03-11T20:35:24.162Z,215.25
2023-03-11T20:37:50.632Z,120.10
2023-03-11T20:40:18.616Z,79.35
2023-03-11T20:42:47.013Z,47.80
2023-03-11T20:45:16.016Z,46.13
2023-03-11T20:47:43.737Z,75.03
2023-03-11T20:50:12.398Z,20.83
2023-03-11T20:52:39.070Z,15.45
2023-03-11T20:55:08.198Z,14.27
2023-03-11T20:57:35.097Z,9.50
2023-03-11T21:00:01.599Z,12.88
2023-03-11T21:02:30.827Z,10.45
2023-03-11T21:04:57.313Z,60.45
2023-03-11T21:07:23.813Z,32.65
2023-03-11T21:09:54.338Z,27.02
2023-03-11T21:12:21.572Z,61.63
2023-03-11T21:14:47.985Z,33.28
2023-03-11T21:17:14.499Z,59.80
2023-03-11T21:19:40.874Z,18.17
2023-03-11T21:22:07.315Z,28.00
2023-03-11T21:24:33.769Z,18.60
2023-03-11T21:27:00.148Z,11.27
2023-03-11T21:29:26.476Z,10.35
2023-03-11T21:31:52.879Z,9.68
2023-03-11T21:34:19.396Z,12.35
2023-03-11T21:36:45.821Z,7.43
2023-03-11T21:39:12.458Z,8.80
2023-03-11T21:41:39.800Z,9.85
2023-03-11T21:44:06.189Z,8.85
2023-03-11T21:46:32.870Z,8.70
2023-03-11T21:49:00.684Z,9.95
2023-03-11T21:51:27.208Z,12.20
2023-03-11T21:53:53.751Z,12.40
2023-03-11T21:56:20.271Z,8.48
2023-03-11T21:58:46.687Z,13.30
2023-03-11T22:01:13.458Z,7.88
2023-03-11T22:03:40.910Z,7.72
2023-03-11T22:06:10.509Z,13.32
2023-03-11T22:08:37.114Z,8.18
2023-03-11T22:11:07.495Z,12.15
2023-03-11T22:13:33.914Z,7.30
2023-03-11T22:16:05.368Z,8.60
2023-03-11T22:18:32.029Z,9.02
2023-03-11T22:20:59.440Z,9.60
2023-03-11T22:23:25.963Z,11.80
2023-03-11T22:25:52.509Z,7.90
2023-03-11T22:28:18.904Z,7.75
2023-03-11T22:30:45.230Z,6.80
2023-03-11T22:33:11.545Z,4.97
2023-03-11T22:35:37.860Z,6.30
2023-03-11T22:38:04.220Z,9.50
2023-03-11T22:40:30.587Z,9.30
2023-03-11T22:42:56.924Z,12.00
2023-03-11T22:45:23.339Z,8.57
2023-03-11T22:47:50.627Z,7.28
2023-03-11T22:50:18.143Z,6.95
2023-03-11T22:52:44.889Z,4.45
2023-03-11T22:55:11.826Z,7.05
2023-03-11T22:57:38.860Z,7.38
2023-03-11T23:00:18.509Z,6.28
2023-03-11T23:02:46.026Z,7.78
2023-03-11T23:05:13.932Z,7.78
2023-03-11T23:07:41.036Z,5.72
2023-03-11T23:10:09.214Z,7.75
2023-03-11T23:12:36.650Z,4.85
2023-03-11T23:15:12.534Z,9.00
2023-03-11T23:17:39.108Z,20.40
2023-03-11T23:20:07.675Z,18.23
2023-03-11T23:22:38.546Z,20.08
2023-03-11T23:25:07.061Z,17.98
2023-03-11T23:27:33.415Z,21.00
2023-03-11T23:29:59.769Z,18.42
2023-03-11T23:32:26.194Z,34.22
2023-03-11T23:34:52.587Z,33.08
2023-03-11T23:37:18.894Z,30.33
2023-03-11T23:39:45.330Z,30.17
2023-03-11T23:42:24.532Z,102.13
2023-03-11T23:44:52.189Z,20.00
2023-03-11T23:47:18.534Z,22.52
2023-03-11T23:49:44.884Z,16.20
2023-03-11T23:52:11.194Z,20.70
2023-03-11T23:54:37.587Z,14.38
2023-03-11T23:57:03.912Z,15.85
2023-03-11T23:59:30.394Z,99.53
